Time;durP1;ratioP1;P1;durP2;ratioP2;P2;SDS_P1;SDS_P2;PMS_P1;PMS_P2;Temp;Humidity;BMP_temperature;BMP_pressure;BME280_temperature;BME280_humidity;BME280_pressure;Samples;Min_cycle;Max_cycle;Signal;HPM_P1;HPM_P2
2023/09/07 00:01:27;;;;;;;12.87;10.60;;;;;;;17.10;98.03;101827.53;5074149;28;20518;-68
2023/09/07 00:03:56;;;;;;;12.80;11.43;;;;;;;17.15;98.33;101821.38;5071776;28;20451;-68
2023/09/07 00:06:27;;;;;;;15.60;11.93;;;;;;;17.16;98.38;101825.81;5062897;28;20450;-68
2023/09/07 00:08:57;;;;;;;13.20;11.90;;;;;;;17.20;98.54;101824.28;5070748;28;20457;-67
2023/09/07 00:11:26;;;;;;;11.90;10.80;;;;;;;17.27;97.71;101836.03;5069948;28;20412;-68
2023/09/07 00:13:57;;;;;;;11.70;10.50;;;;;;;17.25;97.88;101832.66;5072184;28;20805;-68
2023/09/07 00:16:26;;;;;;;11.80;10.53;;;;;;;17.35;97.29;101835.72;5074660;28;20509;-68
2023/09/07 00:18:56;;;;;;;11.37;10.37;;;;;;;17.43;96.63;101835.44;5072868;28;20436;-68
2023/09/07 00:21:26;;;;;;;12.07;10.97;;;;;;;17.54;95.53;101837.44;5076312;28;20412;-68
2023/09/07 00:23:56;;;;;;;12.27;11.07;;;;;;;17.37;95.98;101836.34;5071711;28;20421;-68
2023/09/07 00:26:25;;;;;;;15.20;11.93;;;;;;;17.33;96.26;101835.16;5071052;28;20425;-68
2023/09/07 00:28:55;;;;;;;12.70;11.50;;;;;;;17.18;97.04;101826.44;5078551;28;20437;-68
2023/09/07 00:31:24;;;;;;;13.00;11.80;;;;;;;17.14;97.50;101842.44;5074316;28;20411;-68
2023/09/07 00:33:53;;;;;;;11.53;10.50;;;;;;;17.20;97.72;101835.22;5056501;28;20455;-68
2023/09/07 00:36:23;;;;;;;10.13;9.23;;;;;;;17.15;97.52;101833.16;5071782;28;20444;-68
2023/09/07 00:38:53;;;;;;;11.10;10.10;;;;;;;17.21;97.33;101825.97;5074582;28;20433;-68
2023/09/07 00:41:23;;;;;;;11.07;10.03;;;;;;;17.30;96.88;101832.84;5070990;28;20424;-68
2023/09/07 00:43:52;;;;;;;10.20;9.30;;;;;;;17.30;96.50;101830.94;5068906;28;20441;-68
2023/09/07 00:46:21;;;;;;;12.07;10.60;;;;;;;17.33;96.19;101832.41;5073221;28;20799;-71
2023/09/07 00:48:51;;;;;;;10.30;9.40;;;;;;;17.42;95.34;101832.94;5076056;28;20416;-68
2023/09/07 00:51:20;;;;;;;10.97;9.97;;;;;;;17.30;95.90;101832.84;5073237;28;20449;-68
2023/09/07 00:53:53;;;;;;;10.77;9.77;;;;;;;17.20;96.63;101829.75;5055610;28;21266;-68
2023/09/07 00:56:22;;;;;;;11.93;10.73;;;;;;;17.10;97.26;101832.16;5076731;28;20936;-69
2023/09/07 00:58:53;;;;;;;11.77;10.77;;;;;;;16.93;98.15;101827.25;5056599;28;20537;-68
2023/09/07 01:01:23;;;;;;;11.90;10.70;;;;;;;16.78;99.50;101824.00;5060554;28;20893;-68
2023/09/07 01:03:53;;;;;;;11.53;10.37;;;;;;;16.71;100.00;101825.91;5054273;28;20564;-68
2023/09/07 01:06:28;;;;;;;12.43;8.90;;;;;;;16.72;100.00;101824.03;5055622;28;20533;-68
2023/09/07 01:09:04;;;;;;;12.43;11.30;;;;;;;16.78;100.00;101820.41;5060008;28;20450;-68
2023/09/07 01:11:38;;;;;;;14.23;12.70;;;;;;;16.71;100.00;101825.91;5063182;28;20503;-68
2023/09/07 01:14:07;;;;;;;10.70;9.80;;;;;;;16.65;100.00;101815.03;5071025;28;20440;-67
2023/09/07 01:16:38;;;;;;;10.70;9.50;;;;;;;16.61;100.00;101831.03;5071136;28;20417;-67
2023/09/07 01:19:09;;;;;;;12.73;11.47;;;;;;;16.56;100.00;101825.34;5073494;28;20961;-67
2023/09/07 01:21:40;;;;;;;12.77;11.37;;;;;;;16.57;100.00;101821.56;5057898;28;20454;-67
2023/09/07 01:24:12;;;;;;;12.37;11.23;;;;;;;16.48;100.00;101825.59;5073740;28;20527;-67
2023/09/07 01:26:42;;;;;;;10.63;9.73;;;;;;;16.39;100.00;101821.47;5061665;28;20420;-67
2023/09/07 01:29:11;;;;;;;13.07;11.87;;;;;;;16.41;100.00;101820.16;5066009;28;20461;-67
2023/09/07 01:31:41;;;;;;;11.40;10.30;;;;;;;16.50;100.00;101818.88;5072382;28;20443;-67
2023/09/07 01:34:11;;;;;;;11.57;10.47;;;;;;;16.59;100.00;101821.38;5053113;28;20437;-67
2023/09/07 01:36:42;;;;;;;12.67;11.50;;;;;;;16.65;100.00;101821.34;5069262;28;20443;-67
2023/09/07 01:39:12;;;;;;;11.27;10.27;;;;;;;16.64;100.00;101824.28;5066530;28;20524;-68
2023/09/07 01:41:41;;;;;;;11.10;10.20;;;;;;;16.55;100.00;101823.69;5054367;28;20442;-69
2023/09/07 01:44:10;;;;;;;12.10;10.80;;;;;;;16.54;100.00;101824.75;5050403;28;20470;-69
2023/09/07 01:46:40;;;;;;;11.77;10.60;;;;;;;16.45;100.00;101821.44;5056024;28;20442;-68
2023/09/07 01:49:09;;;;;;;12.03;10.83;;;;;;;16.37;100.00;101818.94;5072550;28;20412;-68
2023/09/07 01:51:39;;;;;;;15.43;11.03;;;;;;;16.33;100.00;101819.59;5060959;28;20521;-68
2023/09/07 01:54:10;;;;;;;12.03;10.83;;;;;;;16.28;100.00;101819.41;5057735;28;20493;-67
2023/09/07 01:56:41;;;;;;;11.00;10.10;;;;;;;16.19;100.00;101813.34;5066640;28;20432;-67
2023/09/07 01:59:10;;;;;;;12.10;10.93;;;;;;;16.15;100.00;101820.31;5056059;28;20449;-68
2023/09/07 02:01:40;;;;;;;18.00;11.40;;;;;;;16.16;100.00;101816.53;5068705;28;20807;-67
2023/09/07 02:04:09;;;;;;;13.47;11.33;;;;;;;16.17;100.00;101825.56;5061150;28;20478;-67
2023/09/07 02:06:39;;;;;;;14.03;10.60;;;;;;;16.27;100.00;101828.66;5056095;28;20445;-68
2023/09/07 02:09:10;;;;;;;11.87;10.77;;;;;;;16.32;100.00;101815.19;5067216;28;20802;-69
2023/09/07 02:11:39;;;;;;;13.33;10.93;;;;;;;16.33;100.00;101816.84;5052989;28;20450;-68
2023/09/07 02:14:10;;;;;;;15.10;12.23;;;;;;;16.29;100.00;101821.09;5069415;28;20504;-67
2023/09/07 02:16:40;;;;;;;16.43;12.03;;;;;;;16.21;100.00;101824.91;5068911;28;20425;-68
2023/09/07 02:19:11;;;;;;;12.73;11.60;;;;;;;16.06;100.00;101817.00;5066462;28;20424;-68
2023/09/07 02:21:42;;;;;;;12.07;10.87;;;;;;;16.03;100.00;101817.41;5059467;28;20965;-68
2023/09/07 02:24:14;;;;;;;12.23;11.03;;;;;;;16.02;100.00;101815.72;5068752;28;21015;-68
2023/09/07 02:26:45;;;;;;;11.57;10.53;;;;;;;15.97;100.00;101817.44;5066433;28;20499;-68
2023/09/07 02:29:15;;;;;;;12.90;11.70;;;;;;;15.95;100.00;101819.53;5051178;28;21018;-68
2023/09/07 02:31:44;;;;;;;13.00;11.80;;;;;;;15.91;100.00;101816.41;5049098;28;20457;-68
2023/09/07 02:34:14;;;;;;;12.27;10.97;;;;;;;15.91;100.00;101821.88;5053237;28;20467;-68
2023/09/07 02:36:43;;;;;;;13.87;12.57;;;;;;;15.98;100.00;101819.94;5049416;28;20834;-68
2023/09/07 02:39:14;;;;;;;12.77;11.57;;;;;;;16.04;100.00;101813.63;5070739;28;20403;-68
2023/09/07 02:41:43;;;;;;;12.87;11.57;;;;;;;16.13;100.00;101816.09;5069738;28;20509;-68
2023/09/07 02:44:14;;;;;;;12.90;11.60;;;;;;;16.15;100.00;101814.84;5057846;28;20464;-68
2023/09/07 02:46:43;;;;;;;14.77;11.40;;;;;;;16.22;100.00;101817.53;5069186;28;20426;-68
2023/09/07 02:49:13;;;;;;;11.93;10.80;;;;;;;16.26;100.00;101816.91;5045484;28;20464;-68
2023/09/07 02:51:42;;;;;;;13.43;12.00;;;;;;;16.20;100.00;101822.38;5049547;28;20505;-69
2023/09/07 02:54:13;;;;;;;17.90;12.40;;;;;;;16.16;100.00;101821.16;5056897;28;20485;-68
2023/09/07 02:56:42;;;;;;;16.43;14.30;;;;;;;16.12;100.00;101825.38;5062144;28;20452;-68
2023/09/07 02:59:12;;;;;;;13.73;11.10;;;;;;;16.10;100.00;101825.59;5049708;28;20448;-68
2023/09/07 03:01:41;;;;;;;13.20;11.87;;;;;;;16.13;100.00;101832.50;5070585;28;20437;-68
2023/09/07 03:04:11;;;;;;;11.53;10.53;;;;;;;16.07;100.00;101824.09;5047355;28;20945;-67
2023/09/07 03:06:40;;;;;;;11.43;10.43;;;;;;;15.95;100.00;101825.84;5072181;28;20504;-68
2023/09/07 03:09:10;;;;;;;15.37;11.73;;;;;;;15.93;100.00;101817.03;5055572;28;20429;-68
2023/09/07 03:11:41;;;;;;;20.70;13.00;;;;;;;15.90;100.00;101825.66;5060317;28;20508;-68
2023/09/07 03:14:10;;;;;;;22.63;13.00;;;;;;;15.94;100.00;101821.44;5058718;28;20974;-68
2023/09/07 03:16:41;;;;;;;23.83;12.07;;;;;;;15.95;100.00;101814.94;5054913;28;21055;-68
2023/09/07 03:19:11;;;;;;;20.93;12.50;;;;;;;15.87;100.00;101822.53;5052048;28;20815;-68
2023/09/07 03:21:41;;;;;;;13.57;11.73;;;;;;;15.86;100.00;101826.28;5075977;28;20561;-68
2023/09/07 03:24:10;;;;;;;18.30;12.53;;;;;;;15.79;100.00;101820.84;5074009;28;20554;-68
2023/09/07 03:26:40;;;;;;;17.03;11.63;;;;;;;15.71;100.00;101828.44;5067177;28;20499;-67
2023/09/07 03:29:10;;;;;;;16.30;12.60;;;;;;;15.65;100.00;101824.66;5073306;28;20454;-68
2023/09/07 03:31:39;;;;;;;13.53;12.20;;;;;;;15.68;100.00;101818.78;5068860;28;20435;-68
2023/09/07 03:34:08;;;;;;;13.57;12.10;;;;;;;15.78;100.00;101819.16;5061447;28;20466;-68
2023/09/07 03:36:38;;;;;;;16.10;14.60;;;;;;;15.79;100.00;101814.53;5055979;28;20993;-68
2023/09/07 03:39:09;;;;;;;15.97;12.70;;;;;;;15.83;100.00;101821.28;5064424;28;20452;-68
2023/09/07 03:41:41;;;;;;;15.20;12.67;;;;;;;15.86;100.00;101820.84;5061293;28;20461;-68
2023/09/07 03:44:10;;;;;;;13.63;12.43;;;;;;;15.87;100.00;101819.78;5069902;28;20484;-68
2023/09/07 03:46:40;;;;;;;14.00;12.70;;;;;;;15.85;100.00;101825.44;5057038;28;20456;-68
2023/09/07 03:49:10;;;;;;;15.00;13.43;;;;;;;15.82;100.00;101820.44;5057350;28;20427;-68
2023/09/07 03:51:39;;;;;;;14.57;13.07;;;;;;;15.80;100.00;101822.53;5065810;28;20423;-68
2023/09/07 03:54:08;;;;;;;13.30;12.03;;;;;;;15.76;100.00;101826.75;5051252;28;20903;-68
2023/09/07 03:56:39;;;;;;;13.73;12.30;;;;;;;15.85;100.00;101830.91;5051845;28;20497;-67
2023/09/07 03:59:11;;;;;;;15.33;12.80;;;;;;;15.75;100.00;101838.69;5056868;28;20449;-68
2023/09/07 04:01:41;;;;;;;14.30;12.90;;;;;;;15.65;100.00;101835.56;5051696;28;20454;-68
2023/09/07 04:04:10;;;;;;;14.07;12.87;;;;;;;15.55;100.00;101837.91;5059803;28;20470;-68
2023/09/07 04:06:40;;;;;;;13.50;12.30;;;;;;;15.45;100.00;101841.03;5070125;28;20434;-68
2023/09/07 04:09:09;;;;;;;15.23;12.87;;;;;;;15.48;100.00;101839.78;5070874;28;20409;-68
2023/09/07 04:11:38;;;;;;;16.20;14.67;;;;;;;15.48;100.00;101840.63;5071703;28;20401;-68
2023/09/07 04:14:09;;;;;;;15.10;13.33;;;;;;;15.57;100.00;101842.09;5081449;28;20990;-68
2023/09/07 04:16:41;;;;;;;15.83;14.20;;;;;;;15.71;100.00;101840.19;5081350;28;20920;-68
2023/09/07 04:19:14;;;;;;;13.23;11.83;;;;;;;15.80;100.00;101833.44;5061210;28;20453;-68
2023/09/07 04:21:46;;;;;;;17.87;16.03;;;;;;;15.64;100.00;101839.34;5054784;28;20464;-69
2023/09/07 04:24:18;;;;;;;14.37;13.00;;;;;;;15.60;100.00;101846.28;5071901;28;20432;-68
2023/09/07 04:26:50;;;;;;;21.00;13.07;;;;;;;15.60;100.00;101843.56;5062730;28;20450;-67
2023/09/07 04:29:26;;;;;;;15.73;14.00;;;;;;;15.60;100.00;101843.56;5058290;28;20790;-68
2023/09/07 04:32:01;;;;;;;25.67;15.37;;;;;;;15.57;100.00;101842.09;5059384;28;20452;-67
2023/09/07 04:34:34;;;;;;;19.70;14.60;;;;;;;15.60;100.00;101851.75;5080767;28;20890;-67
2023/09/07 04:37:06;;;;;;;17.73;14.40;;;;;;;15.53;100.00;101848.19;5063382;28;20439;-67
2023/09/07 04:39:40;;;;;;;15.80;14.40;;;;;;;15.53;100.00;101849.03;5058930;28;20442;-67
2023/09/07 04:42:11;;;;;;;19.50;14.40;;;;;;;15.61;100.00;101850.69;5063132;28;20453;-69
2023/09/07 04:44:45;;;;;;;17.20;14.80;;;;;;;15.67;100.00;101854.47;5058457;28;20549;-69
2023/09/07 04:47:16;;;;;;;16.90;15.30;;;;;;;15.76;100.00;101848.56;5077948;28;20414;-68
2023/09/07 04:49:53;;;;;;;15.03;13.50;;;;;;;15.81;100.00;101845.19;5059414;28;20466;-68
2023/09/07 04:52:25;;;;;;;14.57;13.07;;;;;;;15.88;100.00;101846.84;5079295;28;20432;-68
2023/09/07 04:54:56;;;;;;;14.43;12.87;;;;;;;15.96;100.00;101849.38;5075275;28;20470;-69
2023/09/07 04:57:27;;;;;;;16.33;14.33;;;;;;;16.12;100.00;101860.88;5058552;28;20436;-69
2023/09/07 05:00:00;;;;;;;13.27;11.70;;;;;;;16.98;97.97;101853.94;5065365;28;20439;-68
2023/09/07 05:02:38;;;;;;;16.10;13.77;;;;;;;18.08;88.96;101861.34;5064828;28;20465;-69
2023/09/07 05:05:11;;;;;;;16.73;13.13;;;;;;;18.84;83.54;101860.78;5074403;28;20467;-68
2023/09/07 05:07:44;;;;;;;14.50;13.00;;;;;;;18.99;80.85;101868.56;5060628;28;20466;-69
2023/09/07 05:10:17;;;;;;;14.33;12.73;;;;;;;18.46;83.55;101869.28;5060976;28;20841;-68
2023/09/07 05:12:49;;;;;;;17.30;13.80;;;;;;;18.61;82.52;101866.19;5056327;28;20620;-69
2023/09/07 05:15:23;;;;;;;17.37;14.23;;;;;;;17.85;86.34;101869.41;5074484;28;20425;-69
2023/09/07 05:17:54;;;;;;;14.30;12.83;;;;;;;17.36;90.04;101868.34;5061846;28;20432;-68
2023/09/07 05:20:26;;;;;;;14.67;12.57;;;;;;;17.15;92.24;101865.16;5059037;28;20459;-69
2023/09/07 05:22:59;;;;;;;19.93;13.63;;;;;;;17.11;93.11;101866.66;5057698;28;20437;-68
2023/09/07 05:25:31;;;;;;;13.23;11.37;;;;;;;17.11;93.51;101870.22;5070850;28;20526;-69
2023/09/07 05:28:03;;;;;;;13.83;12.27;;;;;;;17.18;93.44;101872.94;5063440;28;20858;-68
2023/09/07 05:30:36;;;;;;;13.77;12.40;;;;;;;17.23;93.30;101873.91;5075595;28;20447;-68
2023/09/07 05:33:10;;;;;;;19.97;14.03;;;;;;;17.29;93.31;101872.19;5056028;28;20417;-68
2023/09/07 05:35:41;;;;;;;14.23;12.10;;;;;;;17.39;92.98;101872.53;5062023;28;20815;-68
2023/09/07 05:38:12;;;;;;;16.30;11.63;;;;;;;17.53;92.06;101870.50;5056630;28;20425;-68
2023/09/07 05:40:50;;;;;;;14.73;13.33;;;;;;;17.57;91.61;101869.81;5067888;28;20499;-67
2023/09/07 05:43:21;;;;;;;12.80;11.60;;;;;;;17.68;90.98;101876.50;5069700;28;20444;-68
2023/09/07 05:45:55;;;;;;;13.43;12.23;;;;;;;17.77;90.80;101878.72;5057796;28;20434;-68
2023/09/07 05:48:26;;;;;;;13.80;12.50;;;;;;;17.90;89.91;101886.00;5054970;28;20453;-68
2023/09/07 05:50:57;;;;;;;13.87;12.13;;;;;;;17.92;90.03;101880.25;5050061;28;20854;-68
2023/09/07 05:53:29;;;;;;;14.03;11.37;;;;;;;18.10;88.33;101885.78;5053444;28;20425;-68
2023/09/07 05:56:00;;;;;;;12.60;11.40;;;;;;;18.26;87.52;101882.41;5056473;28;20545;-68
2023/09/07 05:58:33;;;;;;;12.77;11.57;;;;;;;18.34;86.56;101884.84;5071523;28;20434;-70
2023/09/07 06:01:09;;;;;;;13.03;11.73;;;;;;;18.44;86.22;101885.16;5073978;28;21002;-67
2023/09/07 06:03:41;;;;;;;17.60;13.50;;;;;;;18.60;84.99;101889.16;5071302;28;20483;-68
2023/09/07 06:06:13;;;;;;;15.87;11.53;;;;;;;18.71;84.29;101876.59;5071594;28;20445;-67
2023/09/07 06:08:45;;;;;;;12.90;11.60;;;;;;;18.81;84.09;101877.72;5057049;28;20434;-68
2023/09/07 06:11:19;;;;;;;15.20;13.17;;;;;;;19.03;82.38;101891.72;5053478;28;20428;-68
2023/09/07 06:13:50;;;;;;;12.93;11.80;;;;;;;19.16;81.64;101885.22;5067761;28;20436;-68
2023/09/07 06:16:23;;;;;;;16.40;13.23;;;;;;;19.29;81.09;101893.22;5055023;28;20425;-68
2023/09/07 06:18:56;;;;;;;16.83;11.83;;;;;;;19.41;79.76;101894.09;5071389;28;20981;-68
2023/09/07 06:21:28;;;;;;;16.90;11.30;;;;;;;19.59;78.49;101885.78;5068787;28;20431;-68
2023/09/07 06:24:00;;;;;;;12.13;10.83;;;;;;;19.67;78.53;101898.31;5048439;28;20523;-69
2023/09/07 06:26:32;;;;;;;13.20;11.80;;;;;;;19.76;77.86;101899.63;5074457;28;20441;-69
2023/09/07 06:29:03;;;;;;;12.70;11.53;;;;;;;19.96;76.87;101897.34;5057502;28;20425;-69
2023/09/07 06:31:37;;;;;;;13.63;11.70;;;;;;;20.09;75.99;101891.59;5060057;28;20532;-68
2023/09/07 06:34:09;;;;;;;16.27;12.20;;;;;;;20.30;74.48;101899.25;5060505;28;20471;-69
2023/09/07 06:36:42;;;;;;;14.40;12.00;;;;;;;20.38;74.08;101889.81;5067353;28;20413;-67
2023/09/07 06:39:21;;;;;;;12.83;11.63;;;;;;;20.57;72.84;101901.47;5057033;28;20429;-67
2023/09/07 06:41:53;;;;;;;14.57;12.07;;;;;;;20.71;71.35;101900.09;5067802;28;20496;-68
2023/09/07 06:44:29;;;;;;;11.30;10.30;;;;;;;20.72;71.27;101901.78;5058034;28;20566;-68
2023/09/07 06:47:03;;;;;;;12.50;11.20;;;;;;;20.88;70.45;101902.88;5057106;28;20443;-68
2023/09/07 06:49:36;;;;;;;14.80;11.23;;;;;;;21.06;69.09;101903.50;5067489;28;20950;-68
2023/09/07 06:52:10;;;;;;;15.30;10.37;;;;;;;21.17;68.74;101901.81;5065333;28;20442;-68
2023/09/07 06:54:42;;;;;;;12.53;10.47;;;;;;;21.30;67.94;101898.72;5055042;28;20521;-68
2023/09/07 06:57:13;;;;;;;15.53;11.00;;;;;;;21.38;68.07;101905.75;5069239;28;20421;-68
2023/09/07 06:59:46;;;;;;;11.53;10.33;;;;;;;21.50;66.60;101907.31;5071220;28;20422;-68
2023/09/07 07:02:19;;;;;;;13.40;10.13;;;;;;;21.59;66.88;101905.81;5065071;28;20507;-67
2023/09/07 07:04:50;;;;;;;14.37;11.93;;;;;;;21.69;64.61;101907.91;5055149;28;20469;-68
2023/09/07 07:07:25;;;;;;;12.77;10.80;;;;;;;21.74;65.15;101909.91;5060815;28;20461;-68
2023/09/07 07:09:56;;;;;;;15.17;10.27;;;;;;;21.94;63.89;101907.50;5062005;28;20525;-68
2023/09/07 07:12:26;;;;;;;15.20;10.83;;;;;;;22.08;63.41;101904.13;5058326;28;20492;-68
2023/09/07 07:14:58;;;;;;;14.93;10.60;;;;;;;22.10;62.64;101915.75;5066698;28;20476;-67
2023/09/07 07:17:31;;;;;;;12.27;10.77;;;;;;;22.19;62.35;101918.03;5049564;28;20433;-67
2023/09/07 07:20:02;;;;;;;13.73;9.83;;;;;;;22.24;62.32;101910.69;5059865;28;20422;-67
2023/09/07 07:22:35;;;;;;;10.20;9.20;;;;;;;22.30;61.99;101919.88;5057329;28;20469;-67
2023/09/07 07:25:06;;;;;;;11.20;10.10;;;;;;;22.32;61.78;101912.16;5050745;28;20777;-67
2023/09/07 07:27:36;;;;;;;11.83;10.60;;;;;;;22.36;61.43;101921.59;5072103;28;20425;-67
2023/09/07 07:30:07;;;;;;;12.87;9.43;;;;;;;22.50;58.92;101911.84;5050097;28;20453;-68
2023/09/07 07:32:47;;;;;;;16.60;10.17;;;;;;;22.57;60.33;101919.91;5050052;28;20434;-69
2023/09/07 07:35:18;;;;;;;11.73;9.60;;;;;;;22.68;59.06;101925.31;5065716;28;20443;-68
2023/09/07 07:37:50;;;;;;;9.67;8.67;;;;;;;22.84;58.50;101924.44;5068149;28;20472;-68
2023/09/07 07:40:21;;;;;;;11.67;9.80;;;;;;;22.93;57.66;101925.63;5061213;28;20546;-68
2023/09/07 07:42:55;;;;;;;11.60;10.40;;;;;;;23.04;57.72;101921.06;5054767;28;20468;-68
2023/09/07 07:45:26;;;;;;;9.87;8.97;;;;;;;23.21;58.02;101918.19;5058942;28;20558;-68
2023/09/07 07:48:47;;;;;;;10.63;9.60;;;;;;;23.33;56.65;101921.63;5051886;28;20895;-68
2023/09/07 07:51:23;;;;;;;10.50;9.50;;;;;;;23.33;56.83;101924.38;5065013;28;20463;-68
2023/09/07 07:53:56;;;;;;;13.13;9.70;;;;;;;23.53;56.55;101921.81;5069610;28;20476;-68
2023/09/07 07:56:29;;;;;;;13.03;9.13;;;;;;;23.72;56.04;101919.50;5074863;28;20429;-68
2023/09/07 07:59:03;;;;;;;18.53;9.77;;;;;;;23.69;55.25;101918.06;5058973;28;20489;-68
2023/09/07 08:01:33;;;;;;;10.30;8.97;;;;;;;23.85;54.89;101918.19;5070296;28;20450;-68
2023/09/07 08:04:05;;;;;;;14.33;8.63;;;;;;;24.03;53.71;101929.66;5055952;28;20511;-67
2023/09/07 08:06:38;;;;;;;11.33;8.53;;;;;;;24.00;53.74;101929.34;5060570;28;20420;-68
2023/09/07 08:09:08;;;;;;;11.00;8.30;;;;;;;24.00;53.98;101921.88;5064238;28;20844;-68
2023/09/07 08:12:06;;;;;;;14.27;9.33;;;;;;;24.03;53.98;101923.28;5055201;28;20504;-68
2023/09/07 08:19:03;;;;;;;9.60;8.60;;;;;;;24.57;52.42;101927.47;5058587;28;20419;-67
2023/09/07 08:21:37;;;;;;;10.20;8.43;;;;;;;24.69;51.40;101930.81;5050613;28;20449;-69
2023/09/07 08:24:07;;;;;;;9.00;7.87;;;;;;;24.75;50.22;101926.13;5060216;28;20458;-68
2023/09/07 08:26:40;;;;;;;10.90;8.00;;;;;;;24.80;49.30;101922.56;5091218;28;20438;-68
2023/09/07 08:29:10;;;;;;;10.87;8.53;;;;;;;24.83;49.74;101931.16;5088096;28;20418;-67
2023/09/07 08:31:45;;;;;;;10.40;8.40;;;;;;;24.95;48.86;101928.16;5080346;28;20418;-68
2023/09/07 08:34:15;;;;;;;9.23;8.00;;;;;;;24.97;48.57;101923.19;5081115;28;20478;-69
2023/09/07 08:36:47;;;;;;;16.77;8.00;;;;;;;25.04;49.19;101923.75;5068328;28;20438;-67
2023/09/07 08:39:17;;;;;;;10.37;7.97;;;;;;;25.20;47.98;101924.63;5088465;28;20461;-68
2023/09/07 08:41:47;;;;;;;10.47;7.40;;;;;;;25.31;48.01;101923.53;5064681;28;20462;-69
2023/09/07 08:44:29;;;;;;;12.70;8.20;;;;;;;25.35;47.29;101917.16;5074399;28;20458;-67
2023/09/07 08:47:00;;;;;;;9.43;8.47;;;;;;;25.46;47.14;101918.00;5066320;28;20429;-69
2023/09/07 08:49:32;;;;;;;10.50;8.27;;;;;;;25.59;46.35;101916.63;5084005;28;20438;-68
2023/09/07 08:52:06;;;;;;;11.30;7.40;;;;;;;25.63;45.73;101921.34;5086127;28;20943;-68
2023/09/07 08:54:37;;;;;;;9.00;8.07;;;;;;;25.83;46.25;101926.03;5081799;28;20466;-67
2023/09/07 08:57:07;;;;;;;8.83;7.70;;;;;;;25.86;46.00;101925.47;5086425;28;20439;-67
2023/09/07 08:59:37;;;;;;;8.30;7.50;;;;;;;25.95;45.50;101929.31;5086559;28;20446;-66
2023/09/07 09:02:10;;;;;;;8.77;7.47;;;;;;;26.08;45.32;101922.38;5086119;28;20427;-66
2023/09/07 09:04:41;;;;;;;9.17;7.43;;;;;;;26.09;45.19;101924.88;5067730;28;20478;-68
2023/09/07 09:07:12;;;;;;;10.03;7.23;;;;;;;26.42;43.59;101928.13;5061006;28;20405;-68
2023/09/07 09:09:41;;;;;;;7.53;6.33;;;;;;;26.51;42.45;101926.44;5077968;28;20963;-67
2023/09/07 09:12:12;;;;;;;7.77;7.00;;;;;;;26.46;42.48;101929.22;5070488;28;20493;-68
2023/09/07 09:14:45;;;;;;;9.63;6.60;;;;;;;26.56;41.79;101924.47;5053152;28;20458;-67
2023/09/07 09:17:16;;;;;;;8.30;6.60;;;;;;;26.63;41.71;101924.16;5062788;28;20457;-68
2023/09/07 09:19:45;;;;;;;8.37;6.60;;;;;;;26.74;41.87;101928.53;5062811;28;20442;-68
2023/09/07 09:22:17;;;;;;;10.77;7.07;;;;;;;26.76;41.75;101926.31;5066455;28;20456;-68
2023/09/07 09:24:49;;;;;;;7.13;6.43;;;;;;;26.73;42.00;101926.88;5055144;28;20530;-68
2023/09/07 09:27:21;;;;;;;8.60;7.10;;;;;;;26.83;42.22;101924.88;5056168;28;20825;-69
2023/09/07 09:29:52;;;;;;;8.97;7.30;;;;;;;26.90;42.17;101919.06;5071362;28;20480;-68
2023/09/07 09:32:24;;;;;;;7.87;6.90;;;;;;;27.06;41.56;101923.38;5070764;28;20464;-68
2023/09/07 09:34:58;;;;;;;11.87;7.20;;;;;;;26.81;41.80;101913.25;5057914;28;20482;-68
2023/09/07 09:37:30;;;;;;;8.33;7.53;;;;;;;27.05;41.74;101916.19;5077197;28;20457;-67
2023/09/07 09:40:02;;;;;;;8.13;7.13;;;;;;;27.03;41.50;101910.06;5057412;28;20454;-67
2023/09/07 09:42:37;;;;;;;7.30;6.60;;;;;;;26.95;41.51;101896.81;5052894;28;20459;-68
2023/09/07 09:45:15;;;;;;;8.33;7.40;;;;;;;26.79;41.10;101906.31;5059884;28;21015;-68
2023/09/07 09:47:53;;;;;;;9.00;8.10;;;;;;;26.78;41.23;101910.19;5048244;28;20862;-67
2023/09/07 09:50:25;;;;;;;7.40;6.70;;;;;;;26.80;41.78;101903.25;5068385;28;20461;-69
2023/09/07 09:52:59;;;;;;;7.77;6.97;;;;;;;26.98;41.54;101892.59;5071488;28;20446;-67
2023/09/07 09:55:32;;;;;;;9.57;8.10;;;;;;;27.00;41.69;101899.53;5061190;28;20853;-67
2023/09/07 09:58:03;;;;;;;8.07;7.20;;;;;;;26.94;41.05;101894.31;5057509;28;20992;-67
2023/09/07 10:00:37;;;;;;;11.00;7.90;;;;;;;27.05;41.17;101905.06;5069238;28;20554;-70
2023/09/07 10:03:12;;;;;;;9.63;8.63;;;;;;;27.28;40.86;101897.13;5043429;28;20443;-67
2023/09/07 10:05:45;;;;;;;7.87;7.17;;;;;;;27.30;40.34;101890.16;5059814;28;20478;-67
2023/09/07 10:08:18;;;;;;;7.37;6.73;;;;;;;27.33;40.31;101897.06;5067898;28;20473;-67
2023/09/07 10:10:50;;;;;;;7.83;6.53;;;;;;;27.08;41.01;101892.53;5061723;28;20442;-67
2023/09/07 10:13:32;;;;;;;9.40;7.90;;;;;;;27.18;41.22;101892.47;5042796;28;20454;-68
2023/09/07 10:16:07;;;;;;;7.33;6.73;;;;;;;27.21;41.08;101898.25;5048948;28;20929;-67
2023/09/07 10:18:39;;;;;;;8.50;7.27;;;;;;;27.25;40.91;101892.97;5056813;28;20537;-68
2023/09/07 10:21:10;;;;;;;7.60;6.83;;;;;;;27.38;40.01;101892.31;5059598;28;20446;-67
2023/09/07 10:23:43;;;;;;;10.77;6.50;;;;;;;27.52;40.09;101893.31;5042998;28;20433;-68
2023/09/07 10:26:20;;;;;;;7.93;7.23;;;;;;;27.64;40.76;101879.84;5049643;28;20449;-68
2023/09/07 10:29:03;;;;;;;11.70;6.87;;;;;;;27.78;39.74;101884.75;5052726;28;20511;-67
2023/09/07 10:35:25;;;;;;;7.43;6.63;;;;;;;27.70;38.87;101886.19;5049529;28;20476;-68
2023/09/07 10:37:58;;;;;;;7.60;6.90;;;;;;;28.07;38.49;101893.88;5048755;28;20462;-66
2023/09/07 10:40:30;;;;;;;9.27;6.73;;;;;;;28.09;37.39;101884.09;5068064;28;20461;-69
2023/09/07 10:43:05;;;;;;;9.47;7.27;;;;;;;28.18;38.06;101878.75;5053964;28;20811;-68
2023/09/07 10:45:36;;;;;;;8.23;7.07;;;;;;;28.28;37.75;101884.19;5051843;28;20814;-68
2023/09/07 10:48:09;;;;;;;8.90;6.87;;;;;;;28.48;37.35;101878.38;5068368;28;20438;-68
2023/09/07 10:50:47;;;;;;;10.53;6.80;;;;;;;28.26;37.05;101885.63;5044415;28;20518;-70
2023/09/07 10:53:25;;;;;;;7.37;6.67;;;;;;;28.13;37.16;101881.59;5059792;28;20444;-68
2023/09/07 10:56:00;;;;;;;6.00;5.50;;;;;;;28.15;36.88;101876.56;5066809;28;20438;-70
2023/09/07 10:58:34;;;;;;;6.43;5.80;;;;;;;28.14;36.94;101888.81;5036958;28;20442;-69
2023/09/07 11:01:04;;;;;;;6.67;5.77;;;;;;;28.19;36.57;101882.34;5063870;28;20446;-68
2023/09/07 11:03:36;;;;;;;9.40;6.27;;;;;;;28.27;36.09;101876.16;5065879;28;20444;-68
2023/09/07 11:06:10;;;;;;;8.17;6.43;;;;;;;28.26;36.78;101874.50;5067846;28;20478;-68
2023/09/07 11:08:50;;;;;;;6.50;5.90;;;;;;;28.14;36.27;101890.75;5064483;28;20444;-68
2023/09/07 11:11:24;;;;;;;8.23;6.17;;;;;;;28.14;35.93;101865.72;5048654;28;20438;-68
2023/09/07 11:13:53;;;;;;;6.93;5.60;;;;;;;28.15;36.12;101861.81;5068148;28;20477;-68
2023/09/07 11:16:27;;;;;;;7.03;6.30;;;;;;;27.88;36.88;101857.66;5048760;28;20438;-70
2023/09/07 11:18:58;;;;;;;11.83;6.90;;;;;;;27.88;36.80;101856.81;5055084;28;21065;-68
2023/09/07 11:21:32;;;;;;;6.60;6.00;;;;;;;27.88;37.21;101854.88;5066800;28;20521;-68
2023/09/07 11:24:04;;;;;;;7.00;5.40;;;;;;;27.97;36.96;101852.28;5059030;28;20815;-68
2023/09/07 11:26:45;;;;;;;7.27;5.77;;;;;;;28.27;37.03;101853.88;5057028;28;20453;-68
2023/09/07 11:29:16;;;;;;;8.10;5.73;;;;;;;28.25;37.00;101845.00;5073774;28;20453;-69
2023/09/07 11:31:46;;;;;;;12.37;6.30;;;;;;;28.42;36.94;101851.72;5058587;28;20483;-69
2023/09/07 11:34:17;;;;;;;7.47;6.80;;;;;;;28.46;37.26;101851.97;5067111;28;20508;-69
2023/09/07 11:36:49;;;;;;;9.00;6.27;;;;;;;28.79;36.57;101845.38;5053226;28;20891;-68
2023/09/07 11:39:50;;;;;;;8.63;6.13;;;;;;;28.97;35.17;101842.88;5051030;28;20469;-68
2023/09/07 11:42:24;;;;;;;7.90;5.57;;;;;;;29.02;36.28;101845.59;5069819;28;20453;-69